Aeroporto :
LOGIN :

Iscrizione | Disclaimer

   EN    FR    IT 

 










Sommario :    VFR   VFR Marginale   IFR   IFR Intensivo   IFR Molto Intensivo
Visibilità : 
Base nubi : 
>= 8 km
>= 3000ft
5 / 8 km
1000 / 3000 ft
1500m / 5 km
500 / 1000 ft
800 / 1500m
200 / 500 ft
< 800m
< 200 ft
Simboli :   Temporali  Nebbia  Neve Forte  Precipitazioni Forti  Vento > 20 kt
SIGMETs :   Varie  Temporali  Ghiacco  Turbolenza  Onda orograficha  Ceneri Vulcaniche






- Altitudine del aeroporto : 202 ft
- Codice IATA : LGW


EGKK - London Gatwick

ULTIMO METAR :
  • 022120Z 20002KT 9999 FEW012 SCT024 15/12 Q1014

METARs OBSOLETI :
  • 022050Z VRB03KT 9999 SCT012 15/13 Q1014
  • 022020Z VRB03KT 6000 BKN013 15/13 Q1014
  • 021950Z VRB03KT CAVOK 15/13 Q1014
  • 021920Z 16004KT 130V210 9999 FEW016 16/12 Q1014
  • 021850Z 17003KT 9999 BKN017 16/12 Q1014

TAF AMD TAF EGKK
Valido dal 02 a 20 ore il 04 a 00 ore UTC


022037Z 0220/0324 18005KT 9999 FEW030
TEMPO 0220/0224 6000 BKN012
PROB40 0303/0309 3000 BR BKN006
PROB30
TEMPO 0309/0319 7000 SHRA



MetMap, La meteo Aeronautica in un colpo d'occhio ! - Copyright ORBIFLY Dicembre 2007 - Disclaimer

ORBIFLY MET'MAP TEAM :

Programmazione e sviluppo : Alexandra Zaïnal
Concezione : Baudouin d'Aumeries
Aiuto per la programmazione : Marc-Olivier Méhu
Supporto tecnico e logistico : Manuel Goepfert
Aiuto per la traduzione : Arnaldo La Scala

Contatto : metmap@orbifly.com




FONTI E CREDITI :

   NOAA